Time;durP1;ratioP1;P1;durP2;ratioP2;P2;SDS_P1;SDS_P2;PMS_P1;PMS_P2;Temp;Humidity;BMP_temperature;BMP_pressure;BME280_temperature;BME280_humidity;BME280_pressure;Samples;Min_cycle;Max_cycle;Signal;HPM_P1;HPM_P2
2023/03/26 00:02:07;;;;;;;;;16.00;15.75;;;;;12.91;68.15;100326.66;146615;589;45020;-72
2023/03/26 00:05:08;;;;;;;;;16.75;14.00;;;;;12.88;67.26;100348.25;146611;673;47012;-75
2023/03/26 00:08:19;;;;;;;;;17.50;14.00;;;;;12.86;68.88;100320.41;146617;610;45021;-75
2023/03/26 00:11:32;;;;;;;;;15.00;15.00;;;;;12.85;68.32;100309.13;146613;563;45916;-74
2023/03/26 00:14:36;;;;;;;;;15.50;13.50;;;;;12.84;68.76;100309.09;146616;573;45021;-74
2023/03/26 00:17:43;;;;;;;;;16.50;15.50;;;;;12.84;68.20;100312.56;146612;583;46016;-74
2023/03/26 00:20:38;;;;;;;;;16.00;13.50;;;;;12.82;68.66;100314.22;146617;576;46010;-75
2023/03/26 00:23:52;;;;;;;;;16.50;15.00;;;;;12.81;68.42;100315.06;146614;645;46012;-81
2023/03/26 00:27:10;;;;;;;;;16.50;12.00;;;;;10.64;67.41;99952.91;146617;631;45020;-83
2023/03/26 00:30:34;;;;;;;;;;;;;;;;;;;;;
2023/03/26 00:33:26;;;;;;;;;19.50;16.75;;;;;12.76;69.01;100327.00;146614;565;46012;-77
2023/03/26 00:36:29;;;;;;;;;18.75;16.00;;;;;12.71;69.34;100325.97;146612;564;46012;-78
2023/03/26 00:39:38;;;;;;;;;20.00;17.00;;;;;10.46;68.40;99936.62;146616;569;46010;-78
2023/03/26 00:42:46;;;;;;;;;20.50;19.75;;;;;12.64;69.57;100324.84;146613;573;45915;-74
2023/03/26 00:45:45;;;;;;;;;20.75;17.00;;;;;12.62;69.48;100330.84;146616;627;45021;-76
2023/03/26 00:48:57;;;;;;;;;23.75;23.00;;;;;12.61;69.09;100329.94;146611;603;47014;-75
2023/03/26 00:52:07;;;;;;;;;20.25;19.75;;;;;12.58;69.99;100313.31;146617;594;45021;-74
2023/03/26 00:55:10;;;;;;;;;18.50;18.00;;;;;12.57;69.41;100317.66;146614;580;46012;-73
2023/03/26 00:58:12;;;;;;;;;18.25;17.25;;;;;12.59;68.91;100309.91;146615;663;46010;-73
2023/03/26 01:01:16;;;;;;;;;20.50;16.50;;;;;12.59;68.79;100330.72;146614;599;45914;-74
2023/03/26 01:04:37;;;;;;;;;22.75;20.25;;;;;12.55;68.13;100318.41;146616;586;45020;-72
2023/03/26 01:07:54;;;;;;;;;21.25;18.50;;;;;12.53;69.56;100333.97;146615;567;46012;-76
2023/03/26 01:11:14;;;;;;;;;;;;;;;;;;;;;
2023/03/26 01:14:17;;;;;;;;;23.50;19.25;;;;;12.43;69.32;100324.06;146614;636;45913;-77
2023/03/26 01:17:32;;;;;;;;;18.50;16.00;;;;;12.41;69.97;100317.91;146617;588;45020;-75
2023/03/26 01:20:45;;;;;;;;;16.25;15.50;;;;;12.43;69.06;100318.87;146612;571;45913;-79
2023/03/26 01:23:54;;;;;;;;;21.00;16.00;;;;;12.45;69.70;100323.28;146613;623;46010;-77
2023/03/26 01:27:24;;;;;;;;;14.50;14.25;;;;;12.41;69.21;100324.00;146613;594;46012;-73
2023/03/26 01:31:24;;;;;;;;;14.75;14.50;;;;;12.41;68.81;100329.19;146614;598;46010;-76
2023/03/26 01:35:05;;;;;;;;;17.50;14.00;;;;;12.38;68.78;100321.28;146613;658;45913;-77
2023/03/26 01:38:35;;;;;;;;;18.00;14.25;;;;;12.36;68.66;100317.72;146617;577;45045;-72
2023/03/26 01:42:09;;;;;;;;;;;;;;;;;;;;;
2023/03/26 01:45:33;;;;;;;;;16.50;14.50;;;;;10.23;68.28;99951.25;146614;623;46010;-72
2023/03/26 01:48:55;;;;;;;;;20.75;17.00;;;;;12.35;69.30;100321.16;146613;574;45910;-79
2023/03/26 01:51:56;;;;;;;;;16.00;14.75;;;;;12.33;69.70;100319.34;146609;666;47012;-82
2023/03/26 01:55:19;;;;;;;;;17.50;14.75;;;;;10.23;68.36;99952.97;146614;563;45912;-83
2023/03/26 01:58:53;;;;;;;;;18.25;15.50;;;;;12.34;69.46;100319.41;146617;654;45021;-72
2023/03/26 02:02:22;;;;;;;;;19.50;17.25;;;;;12.30;69.50;100325.31;146614;595;45910;-76
2023/03/26 02:06:00;;;;;;;;;22.75;18.00;;;;;10.14;69.07;99956.94;146615;584;46011;-76
2023/03/26 02:09:40;;;;;;;;;20.50;16.25;;;;;10.28;69.49;99983.47;146612;573;45910;-73
2023/03/26 02:12:47;;;;;;;;;16.50;16.50;;;;;10.23;69.24;99964.22;146614;707;46012;-75
2023/03/26 02:16:20;;;;;;;;;19.50;16.00;;;;;12.42;69.52;100336.16;146612;600;45912;-75
2023/03/26 02:19:23;;;;;;;;;17.50;16.25;;;;;12.42;69.13;100337.88;146617;678;45021;-76
2023/03/26 02:22:31;;;;;;;;;20.00;17.75;;;;;12.39;69.31;100328.25;146604;592;47912;-75
2023/03/26 02:25:45;;;;;;;;;20.50;18.50;;;;;10.18;69.29;99961.41;146609;569;46010;-74
2023/03/26 02:28:45;;;;;;;;;19.75;18.00;;;;;12.35;69.70;100330.69;146607;600;45912;-75
2023/03/26 02:32:03;;;;;;;;;19.25;16.75;;;;;12.37;69.02;100329.03;146611;578;45020;-76
2023/03/26 02:35:09;;;;;;;;;18.00;16.75;;;;;12.38;69.68;100334.28;146607;630;45912;-75
2023/03/26 02:38:24;;;;;;;;;16.75;15.00;;;;;10.17;68.66;99959.66;146609;582;46010;-75
2023/03/26 02:41:19;;;;;;;;;15.50;15.25;;;;;12.38;69.34;100334.28;146607;592;46012;-76
2023/03/26 02:44:39;;;;;;;;;18.25;15.75;;;;;12.38;69.14;100333.41;146605;563;45021;-76
2023/03/26 02:47:54;;;;;;;;;;;;;;;;;;;;;
2023/03/26 02:51:09;;;;;;;;;19.50;16.75;;;;;12.36;68.99;100330.72;146610;651;45021;-74
2023/03/26 02:54:18;;;;;;;;;18.50;15.50;;;;;10.06;68.57;99940.22;146606;573;46012;-73
2023/03/26 02:57:25;;;;;;;;;18.50;16.25;;;;;12.35;69.26;100335.87;146611;612;46010;-73
2023/03/26 03:00:56;;;;;;;;;21.00;15.75;;;;;12.37;69.26;100344.66;146607;605;45914;-73
2023/03/26 03:04:04;;;;;;;;;;;;;;;;;;;;;
2023/03/26 03:07:23;;;;;;;;;;;;;;;;;;;;;
2023/03/26 03:10:32;;;;;;;;;16.75;15.50;;;;;12.47;68.95;100332.03;146612;591;45020;-73
2023/03/26 03:13:37;;;;;;;;;14.75;13.50;;;;;12.41;68.95;100334.41;146608;598;45914;-74
2023/03/26 03:16:45;;;;;;;;;14.00;11.00;;;;;12.38;68.58;100336.88;146603;593;46010;-75
2023/03/26 03:19:56;;;;;;;;;20.00;14.25;;;;;10.26;67.60;99963.44;146606;588;46013;-75
2023/03/26 03:23:16;;;;;;;;;13.75;12.75;;;;;12.44;67.70;100344.91;146612;654;46012;-73
2023/03/26 03:26:20;;;;;;;;;22.75;14.00;;;;;12.53;67.36;100346.97;146614;574;45914;-74
2023/03/26 03:29:43;;;;;;;;;;;;;;;;;;;;;
2023/03/26 03:32:47;;;;;;;;;14.50;13.25;;;;;12.76;65.95;100354.75;146612;586;46013;-74
2023/03/26 03:35:59;;;;;;;;;;;;;;;;;;;;;
2023/03/26 03:39:05;;;;;;;;;16.00;15.00;;;;;12.91;64.88;100352.69;146612;629;46012;-71
2023/03/26 03:42:17;;;;;;;;;14.00;12.00;;;;;10.82;63.79;99975.19;146617;578;45021;-71
2023/03/26 03:45:29;;;;;;;;;14.75;13.00;;;;;13.07;64.62;100356.72;146612;605;46012;-72
2023/03/26 03:48:38;;;;;;;;;17.75;14.00;;;;;13.12;64.47;100361.25;146616;570;46010;-71
2023/03/26 03:51:54;;;;;;;;;;;;;;;;;;;;;
2023/03/26 03:55:04;;;;;;;;;18.00;13.00;;;;;13.18;64.24;100355.37;146617;617;45020;-71
2023/03/26 03:58:17;;;;;;;;;;;;;;;;;;;;;
2023/03/26 04:01:25;;;;;;;;;13.75;12.75;;;;;13.17;63.78;100357.09;146615;570;46012;-71
2023/03/26 04:04:23;;;;;;;;;13.50;12.75;;;;;13.21;63.27;100371.12;146612;564;46012;-72
2023/03/26 04:07:33;;;;;;;;;10.50;7.00;;;;;13.27;62.15;100370.44;146616;647;46010;-71
2023/03/26 04:10:50;;;;;;;;;10.75;7.25;;;;;13.35;59.90;100369.91;146615;588;46016;-71
2023/03/26 04:13:53;;;;;;;;;7.25;6.25;;;;;13.49;59.78;100372.06;146623;618;45023;-70
2023/03/26 04:17:10;;;;;;;;;11.00;6.50;;;;;12.58;59.24;100197.16;146617;609;46012;-70
2023/03/26 04:20:39;;;;;;;;;10.00;8.00;;;;;13.77;57.66;100386.91;146618;576;45021;-71
2023/03/26 04:23:35;;;;;;;;;7.25;4.50;;;;;13.89;56.70;100384.69;146622;634;45915;-70
2023/03/26 04:26:35;;;;;;;;;6.00;6.00;;;;;14.03;56.25;100379.94;146625;602;45021;-71
2023/03/26 04:29:46;;;;;;;;;5.00;5.00;;;;;14.17;54.19;100391.66;146620;579;46012;-69
2023/03/26 04:33:23;;;;;;;;;7.75;7.25;;;;;14.34;56.32;100405.25;146625;573;46011;-70
2023/03/26 04:36:39;;;;;;;;;7.00;6.25;;;;;14.44;54.42;100416.84;146616;595;47011;-69
2023/03/26 04:39:47;;;;;;;;;5.25;4.50;;;;;14.49;53.96;100424.00;146622;685;46020;-69
2023/03/26 04:42:46;;;;;;;;;7.00;6.00;;;;;14.54;54.02;100434.56;146621;638;46014;-70
2023/03/26 04:45:41;;;;;;;;;6.75;6.00;;;;;14.59;54.36;100432.12;146624;739;46010;-74
2023/03/26 04:48:45;;;;;;;;;6.00;6.00;;;;;14.61;53.48;100433.94;146620;680;46012;-77
2023/03/26 04:51:55;;;;;;;;;7.00;6.00;;;;;14.62;54.10;100445.28;146620;589;46010;-77
2023/03/26 04:55:31;;;;;;;;;10.50;8.25;;;;;14.62;54.76;100451.38;146622;585;45913;-77
2023/03/26 04:58:31;;;;;;;;;13.25;12.00;;;;;14.60;55.36;100455.62;146624;571;46012;-75
2023/03/26 05:01:46;;;;;;;;;11.50;10.75;;;;;14.57;56.22;100463.38;146614;736;45912;-72
2023/03/26 05:04:47;;;;;;;;;13.25;9.00;;;;;14.86;57.15;100455.53;146616;600;46010;-72
2023/03/26 05:08:22;;;;;;;;;13.00;10.75;;;;;13.82;56.33;100103.91;146618;573;45910;-71
2023/03/26 05:11:21;;;;;;;;;12.00;10.75;;;;;16.85;53.26;100452.84;146616;593;46013;-73
2023/03/26 05:14:35;;;;;;;;;13.75;13.25;;;;;17.65;51.64;100457.03;146614;574;46012;-72
2023/03/26 05:17:55;;;;;;;;;;;;;;;;;;;;;
2023/03/26 05:21:07;;;;;;;;;16.25;13.00;;;;;19.31;49.13;100457.81;146618;576;46012;-72
2023/03/26 05:24:28;;;;;;;;;15.00;12.50;;;;;18.11;48.46;100128.16;146614;565;46010;-72
2023/03/26 05:27:28;;;;;;;;;23.25;17.25;;;;;20.48;44.22;100465.94;146611;606;46016;-73
2023/03/26 05:30:38;;;;;;;;;16.50;16.25;;;;;20.53;44.72;100461.63;146618;734;45020;-72
2023/03/26 05:33:46;;;;;;;;;28.00;24.75;;;;;20.34;43.48;100467.56;146610;572;46013;-71
2023/03/26 05:36:57;;;;;;;;;42.00;32.75;;;;;18.12;45.20;100142.16;146617;577;45020;-72
2023/03/26 05:40:01;;;;;;;;;25.25;23.25;;;;;19.74;44.75;100463.56;146609;599;47017;-72
2023/03/26 05:43:09;;;;;;;;;13.75;12.00;;;;;19.46;43.89;100462.38;146615;570;46010;-76
2023/03/26 05:46:28;;;;;;;;;14.00;11.00;;;;;17.01;46.14;100110.94;146613;590;46014;-74
2023/03/26 05:49:42;;;;;;;;;11.25;9.00;;;;;18.86;43.77;100473.03;146617;563;45021;-77
2023/03/26 05:52:44;;;;;;;;;9.25;9.00;;;;;18.74;45.58;100483.38;146621;563;45912;-76
2023/03/26 05:55:56;;;;;;;;;13.75;10.00;;;;;18.68;47.24;100485.88;146621;564;46012;-75
2023/03/26 05:58:59;;;;;;;;;12.50;10.00;;;;;18.55;44.81;100483.94;146611;603;46012;-75
2023/03/26 06:02:03;;;;;;;;;26.00;24.50;;;;;18.42;45.72;100491.63;146614;648;46010;-75
2023/03/26 06:04:59;;;;;;;;;8.00;8.00;;;;;18.34;45.15;100487.97;146614;585;46014;-75
2023/03/26 06:08:02;;;;;;;;;9.75;9.00;;;;;17.53;45.22;100348.47;146623;575;45020;-74
2023/03/26 06:11:10;;;;;;;;;7.50;6.75;;;;;18.41;46.92;100494.22;146620;593;45915;-77
2023/03/26 06:14:29;;;;;;;;;8.75;8.00;;;;;18.52;47.13;100479.50;146621;597;46010;-81
2023/03/26 06:17:26;;;;;;;;;9.25;8.25;;;;;18.64;45.58;100486.69;146620;564;46012;-74
2023/03/26 06:20:43;;;;;;;;;11.00;9.00;;;;;18.76;45.81;100484.28;146622;670;46010;-77
2023/03/26 06:23:45;;;;;;;;;8.00;6.33;;;;;18.88;42.97;100491.47;146620;583;45915;-76
2023/03/26 06:26:51;;;;;;;;;5.75;5.00;;;;;18.96;42.84;100487.16;146616;586;45020;-80
2023/03/26 06:29:55;;;;;;;;;8.25;8.00;;;;;19.08;45.11;100499.59;146621;582;46012;-84
2023/03/26 06:33:05;;;;;;;;;9.75;8.50;;;;;19.25;44.16;100490.19;146624;571;46010;-84
2023/03/26 06:36:02;;;;;;;;;10.00;8.00;;;;;19.42;43.58;100489.50;146622;591;45914;-80
2023/03/26 06:39:04;;;;;;;;;10.00;10.00;;;;;19.50;44.05;100485.19;146623;590;45021;-75
2023/03/26 06:42:07;;;;;;;;;10.25;7.75;;;;;19.57;46.14;100487.91;146615;656;45914;-79
2023/03/26 06:45:21;;;;;;;;;7.25;7.00;;;;;19.69;44.33;100489.84;146624;576;45020;-84
2023/03/26 06:48:13;;;;;;;;;9.00;9.00;;;;;19.81;42.12;100484.69;146620;578;45915;-83
2023/03/26 06:51:40;;;;;;;;;5.25;5.25;;;;;18.12;41.51;100186.75;146625;563;45020;-80
2023/03/26 06:54:49;;;;;;;;;10.50;8.75;;;;;19.88;40.45;100497.91;146620;564;46013;-80
2023/03/26 06:57:53;;;;;;;;;5.50;5.00;;;;;19.85;43.23;100511.91;146617;687;46010;-73
2023/03/26 07:00:48;;;;;;;;;8.25;8.00;;;;;19.93;40.88;100510.22;146613;665;47914;-76
2023/03/26 07:04:02;;;;;;;;;7.50;6.75;;;;;20.04;41.01;100511.22;146625;611;46010;-83
2023/03/26 07:07:03;;;;;;;;;8.00;8.00;;;;;20.19;39.41;100514.87;146619;684;46016;-77
2023/03/26 07:10:09;;;;;;;;;48.50;38.25;;;;;18.55;38.22;100214.38;146623;644;45021;-77
2023/03/26 07:13:24;;;;;;;;;84.50;66.00;;;;;18.58;39.24;100210.91;146613;592;45917;-77
2023/03/26 07:16:22;;;;;;;;;42.25;35.00;;;;;20.50;40.23;100522.13;146619;574;45020;-77
2023/03/26 07:19:38;;;;;;;;;39.00;29.50;;;;;20.74;41.91;100528.47;146614;638;46012;-79
2023/03/26 07:22:47;;;;;;;;;32.75;27.25;;;;;20.97;38.77;100531.28;146617;583;45021;-77
2023/03/26 07:25:51;;;;;;;;;14.25;14.00;;;;;19.15;39.01;100207.06;146614;598;45915;-78
2023/03/26 07:29:12;;;;;;;;;9.75;8.25;;;;;21.07;39.18;100527.81;146616;586;46010;-79
2023/03/26 07:32:36;;;;;;;;;11.25;9.00;;;;;21.16;39.63;100530.47;146622;605;46014;-78
2023/03/26 07:36:01;;;;;;;;;7.33;6.00;;;;;21.25;40.26;100521.75;146625;595;45022;-81
2023/03/26 07:40:04;;;;;;;;;;;;;;;;;;;;;
2023/03/26 07:44:02;;;;;;;;;9.00;7.67;;;;;21.38;39.40;100504.25;146626;571;46010;-78
2023/03/26 07:47:24;;;;;;;;;8.50;6.50;;;;;21.48;38.36;100500.75;146620;573;46013;-81
2023/03/26 07:50:44;;;;;;;;;11.33;7.33;;;;;21.59;38.92;100514.00;146625;691;45029;-78
2023/03/26 07:54:04;;;;;;;;;8.50;8.50;;;;;20.02;41.06;100206.78;146617;696;45915;-77
2023/03/26 07:57:29;;;;;;;;;10.00;8.50;;;;;22.00;40.15;100524.63;146624;647;46010;-78
2023/03/26 08:01:03;;;;;;;;;9.75;7.75;;;;;20.83;41.62;100301.91;146619;714;46015;-79
2023/03/26 08:04:36;;;;;;;;;;;;;;;;;;;;;
2023/03/26 08:08:16;;;;;;;;;19.75;15.00;;;;;21.61;42.61;100536.84;146624;608;45027;-79
2023/03/26 08:11:57;;;;;;;;;18.50;16.50;;;;;21.18;43.75;100548.94;146624;564;45021;-84
2023/03/26 08:15:59;;;;;;;;;16.50;15.75;;;;;21.14;42.13;100565.63;146615;595;47914;-81
2023/03/26 08:19:36;;;;;;;;;16.25;14.75;;;;;20.99;44.97;100554.09;146624;570;45021;-82
2023/03/26 08:22:58;;;;;;;;;17.75;16.75;;;;;20.00;45.34;100398.00;146617;658;45912;-83
2023/03/26 08:26:44;;;;;;;;;21.50;17.75;;;;;19.85;45.27;100348.78;146623;637;47012;-84
2023/03/26 08:30:31;;;;;;;;;13.00;12.75;;;;;21.20;43.09;100550.72;146620;623;46014;-82
2023/03/26 08:33:26;;;;;;;;;16.25;13.25;;;;;21.26;42.48;100556.91;146623;569;46012;-82
2023/03/26 08:36:19;;;;;;;;;17.00;16.00;;;;;21.18;42.75;100544.56;146619;563;45914;-81
2023/03/26 08:39:15;;;;;;;;;19.50;17.25;;;;;21.09;42.56;100555.06;146624;569;45021;-82
2023/03/26 08:43:02;;;;;;;;;;;;;;;;;;;;;
2023/03/26 08:46:44;;;;;;;;;13.25;11.00;;;;;21.22;44.34;100556.88;146619;649;46010;-81
2023/03/26 08:50:31;;;;;;;;;10.50;10.50;;;;;19.93;41.82;100294.44;146619;565;46017;-78
2023/03/26 08:54:29;;;;;;;;;15.00;14.75;;;;;20.85;43.83;100405.56;146613;626;46021;-82
2023/03/26 08:58:04;;;;;;;;;14.75;13.00;;;;;20.83;40.14;100372.19;146618;680;45918;-86
2023/03/26 09:01:44;;;;;;;;;12.50;11.75;;;;;21.10;41.33;100418.84;146624;648;45022;-82
2023/03/26 09:05:40;;;;;;;;;14.00;12.75;;;;;21.16;39.69;100403.94;146636;652;45012;-83
2023/03/26 09:09:24;;;;;;;;;16.25;14.25;;;;;20.25;41.46;100278.84;146639;564;44020;-81
2023/03/26 09:13:11;;;;;;;;;17.25;15.50;;;;;20.98;40.07;100403.88;146638;648;45014;-81
2023/03/26 09:16:39;;;;;;;;;17.25;15.25;;;;;22.00;41.01;100558.06;146639;583;44021;-84
2023/03/26 09:20:26;;;;;;;;;11.00;10.50;;;;;21.17;42.41;100408.31;146638;632;44911;-82
2023/03/26 09:24:10;;;;;;;;;13.75;12.50;;;;;22.22;42.29;100573.09;146640;683;44020;-83
2023/03/26 09:27:55;;;;;;;;;10.75;9.75;;;;;19.87;37.33;100164.59;146635;678;45012;-83
2023/03/26 09:31:43;;;;;;;;;10.25;9.00;;;;;20.13;40.44;100184.03;146648;707;44022;-83
2023/03/26 09:35:25;;;;;;;;;11.25;11.25;;;;;22.80;41.29;100574.84;146641;660;44914;-85
2023/03/26 09:39:01;;;;;;;;;8.67;8.67;;;;;23.20;40.27;100572.16;146639;679;45011;-84
2023/03/26 09:42:28;;;;;;;;;11.75;11.25;;;;;23.54;38.81;100572.91;146641;603;44914;-81
2023/03/26 09:46:13;;;;;;;;;10.50;7.00;;;;;22.89;38.31;100420.63;146638;609;45010;-80
2023/03/26 09:50:09;;;;;;;;;10.00;7.00;;;;;22.45;36.47;100388.16;146641;592;45916;-80
2023/03/26 09:54:07;;;;;;;;;11.50;11.50;;;;;22.19;37.85;100411.13;146644;579;45010;-85
2023/03/26 09:57:36;;;;;;;;;7.67;6.33;;;;;23.01;36.63;100581.91;146636;593;45913;-82
2023/03/26 10:01:20;;;;;;;;;10.00;9.00;;;;;21.34;38.39;100259.78;146646;669;44021;-84
2023/03/26 10:05:08;;;;;;;;;9.67;9.33;;;;;22.47;38.03;100388.16;146629;656;45916;-82
2023/03/26 10:08:59;;;;;;;;;13.50;11.50;;;;;21.48;34.03;100162.22;146632;576;45021;-82
2023/03/26 10:12:45;;;;;;;;;13.00;12.00;;;;;22.27;34.58;100275.50;146619;704;45914;-83
2023/03/26 10:16:18;;;;;;;;;11.25;8.75;;;;;23.91;36.76;100549.81;146624;590;45050;-80
2023/03/26 10:19:48;;;;;;;;;11.00;10.25;;;;;23.79;37.00;100544.59;146622;612;46012;-83
2023/03/26 10:23:53;;;;;;;;;11.50;8.75;;;;;22.65;36.87;100387.22;146621;649;46008;-82
2023/03/26 10:27:50;;;;;;;;;11.25;10.00;;;;;23.47;34.68;100545.59;146624;595;46014;-82
2023/03/26 10:31:35;;;;;;;;;8.25;8.25;;;;;23.66;38.10;100546.38;146622;600;45050;-83
2023/03/26 10:35:20;;;;;;;;;7.00;7.00;;;;;22.42;35.11;100274.56;146624;566;46012;-82
2023/03/26 10:39:06;;;;;;;;;7.33;7.00;;;;;24.47;37.36;100542.37;146633;578;45021;-84
2023/03/26 10:42:46;;;;;;;;;10.33;8.00;;;;;24.68;35.28;100529.81;146625;601;45912;-83
2023/03/26 10:47:14;;;;;;;;;;;;;;;;;;;;;
2023/03/26 10:50:45;;;;;;;;;5.33;5.00;;;;;25.17;35.69;100530.22;146627;598;45912;-82
2023/03/26 10:54:39;;;;;;;;;11.00;8.00;;;;;24.50;34.79;100379.78;146632;567;45021;-83
2023/03/26 10:58:27;;;;;;;;;;;;;;;;;;;;;
2023/03/26 11:01:44;;;;;;;;;4.00;4.00;;;;;25.25;33.49;100446.06;146707;570;45023;-83
2023/03/26 11:05:44;;;;;;;;;1.67;1.00;;;;;25.91;33.28;100510.66;146625;623;46018;-83
2023/03/26 11:09:08;;;;;;;;;5.00;4.00;;;;;25.95;26.65;100497.31;146631;631;45021;-86
2023/03/26 11:12:39;;;;;;;;;2.00;2.00;;;;;25.75;31.65;100491.37;146625;609;45022;-82
2023/03/26 11:15:54;;;;;;;;;;;;;;;;;;;;;
2023/03/26 11:19:27;;;;;;;;;1.67;1.67;;;;;26.09;27.93;100502.38;146626;642;45016;-81
2023/03/26 11:23:15;;;;;;;;;3.00;2.00;;;;;26.23;33.45;100494.19;146627;593;45021;-82
2023/03/26 11:26:55;;;;;;;;;3.67;3.67;;;;;25.69;29.09;100364.88;146624;610;45914;-82
2023/03/26 11:30:40;;;;;;;;;5.00;4.00;;;;;25.86;34.16;100361.97;146630;621;45021;-83
2023/03/26 11:33:59;;;;;;;;;4.67;4.00;;;;;26.64;31.92;100477.53;146624;639;45016;-82
2023/03/26 11:37:22;;;;;;;;;;;;;;;;;;;;;
2023/03/26 11:40:51;;;;;;;;;1.67;1.00;;;;;26.35;31.55;100410.69;146626;606;45019;-81
2023/03/26 11:44:22;;;;;;;;;1.00;1.00;;;;;26.53;35.01;100436.97;146627;661;45020;-81
2023/03/26 11:47:26;;;;;;;;;2.33;2.33;;;;;26.81;30.68;100461.25;146623;606;45018;-80
2023/03/26 11:50:39;;;;;;;;;3.67;1.00;;;;;26.85;26.24;100456.75;146627;632;45020;-80
2023/03/26 11:53:50;;;;;;;;;2.00;2.00;;;;;26.81;27.42;100457.72;146626;573;45014;-82
2023/03/26 11:57:05;;;;;;;;;2.00;2.00;;;;;26.85;28.50;100452.28;146625;593;45020;-80
2023/03/26 12:00:22;;;;;;;;;3.00;2.00;;;;;26.84;30.10;100434.59;146624;607;45017;-81
2023/03/26 12:03:30;;;;;;;;;2.33;2.33;;;;;26.91;27.58;100427.34;146626;581;46010;-81
2023/03/26 12:06:33;;;;;;;;;3.67;2.00;;;;;26.93;30.62;100434.41;146623;579;46915;-82
2023/03/26 12:09:28;;;;;;;;;4.00;2.00;;;;;27.01;27.39;100420.03;146626;569;45020;-81
2023/03/26 12:12:36;;;;;;;;;1.33;1.33;;;;;27.09;26.09;100416.31;146627;600;45014;-81
2023/03/26 12:15:37;;;;;;;;;2.67;2.00;;;;;27.17;27.49;100401.09;146629;572;45020;-82
2023/03/26 12:19:06;;;;;;;;;2.33;2.33;;;;;27.29;29.60;100393.72;146625;613;45016;-83
2023/03/26 12:23:02;;;;;;;;;4.00;3.00;;;;;27.26;28.03;100383.16;146629;633;45021;-79
2023/03/26 12:26:30;;;;;;;;;1.67;1.67;;;;;26.56;29.15;100266.72;146621;607;46912;-80
2023/03/26 12:29:45;;;;;;;;;6.00;5.00;;;;;27.12;31.81;100392.31;146628;571;45020;-81
2023/03/26 12:33:20;;;;;;;;;;;;;;;;;;;;;
2023/03/26 12:36:44;;;;;;;;;5.67;4.67;;;;;26.14;35.56;100289.75;146628;608;45020;-82
2023/03/26 12:39:50;;;;;;;;;6.00;4.67;;;;;26.18;32.25;100380.00;146624;565;45018;-83
2023/03/26 12:42:58;;;;;;;;;5.00;4.00;;;;;25.78;29.25;100387.75;146629;635;45020;-88
2023/03/26 12:46:01;;;;;;;;;4.00;4.00;;;;;25.51;28.44;100373.13;146626;575;45017;-76
2023/03/26 12:49:02;;;;;;;;;4.00;3.00;;;;;25.33;30.18;100364.56;146630;626;45020;-79
2023/03/26 12:52:39;;;;;;;;;4.67;3.33;;;;;25.30;31.79;100359.31;146626;597;45016;-74
2023/03/26 12:56:35;;;;;;;;;6.00;3.33;;;;;25.41;33.98;100360.91;146630;577;45012;-73
2023/03/26 13:00:26;;;;;;;;;5.67;4.00;;;;;24.77;34.73;100232.75;146625;583;45014;-79
2023/03/26 13:04:08;;;;;;;;;3.00;3.00;;;;;25.60;32.47;100359.72;146627;597;46012;-78
2023/03/26 13:07:44;;;;;;;;;6.00;6.00;;;;;24.92;31.75;100215.72;146624;583;45910;-81
2023/03/26 13:11:52;;;;;;;;;5.00;3.67;;;;;25.40;33.58;100304.31;146628;577;45022;-77
2023/03/26 13:15:46;;;;;;;;;4.33;3.00;;;;;25.62;33.79;100343.78;146624;565;45910;-77
2023/03/26 13:19:00;;;;;;;;;4.00;4.00;;;;;25.57;32.70;100354.44;146627;584;45020;-73
2023/03/26 13:22:45;;;;;;;;;4.33;4.33;;;;;25.28;34.33;100347.81;146622;696;45024;-79
2023/03/26 13:26:28;;;;;;;;;;;;;;;;;;;;;
2023/03/26 13:29:58;;;;;;;;;5.00;5.00;;;;;24.31;32.76;100349.94;146623;576;46014;-81
2023/03/26 13:33:41;;;;;;;;;6.00;5.33;;;;;23.62;31.59;100313.50;146629;596;45020;-78
2023/03/26 13:37:13;;;;;;;;;4.00;4.00;;;;;23.28;30.04;100342.88;146625;621;45911;-77
2023/03/26 13:41:06;;;;;;;;;5.00;4.00;;;;;22.80;31.29;100337.84;146629;591;46012;-77
2023/03/26 13:45:07;;;;;;;;;3.00;2.67;;;;;22.50;31.28;100337.97;146623;586;45016;-78
2023/03/26 13:48:28;;;;;;;;;5.67;4.33;;;;;22.35;31.35;100350.31;146628;569;46020;-84
2023/03/26 13:52:01;;;;;;;;;6.67;5.33;;;;;22.29;31.66;100342.41;146626;608;45016;-78
2023/03/26 13:55:34;;;;;;;;;4.00;4.00;;;;;22.12;32.08;100315.16;146627;579;46020;-76
2023/03/26 13:59:02;;;;;;;;;5.33;5.33;;;;;22.24;30.52;100331.00;146624;608;45912;-79
2023/03/26 14:02:44;;;;;;;;;6.33;5.33;;;;;22.29;31.37;100330.97;146623;582;45020;-78
2023/03/26 14:06:04;;;;;;;;;5.67;4.33;;;;;21.49;30.51;100199.13;146623;588;45916;-81
2023/03/26 14:09:33;;;;;;;;;6.67;5.00;;;;;22.30;31.07;100332.72;146627;635;45022;-84
2023/03/26 14:13:08;;;;;;;;;4.00;4.00;;;;;22.24;30.45;100335.37;146626;602;45018;-80
2023/03/26 14:16:26;;;;;;;;;4.00;4.00;;;;;22.14;31.10;100324.81;146627;647;45020;-78
2023/03/26 14:20:23;;;;;;;;;5.00;5.00;;;;;22.03;30.54;100320.47;146621;570;45016;-77
2023/03/26 14:24:13;;;;;;;;;5.00;5.00;;;;;21.97;31.58;100315.19;146625;613;45022;-81
2023/03/26 14:28:00;;;;;;;;;5.67;3.00;;;;;21.40;33.14;100196.50;146622;599;45916;-74
2023/03/26 14:31:36;;;;;;;;;3.33;3.00;;;;;21.43;32.69;100188.59;146628;584;45020;-78
2023/03/26 14:35:33;;;;;;;;;4.00;4.00;;;;;22.23;32.29;100320.44;146615;600;47016;-72
2023/03/26 14:39:05;;;;;;;;;4.67;4.67;;;;;22.28;34.58;100316.91;146627;660;45020;-74
2023/03/26 14:42:43;;;;;;;;;5.00;5.00;;;;;22.35;32.74;100309.84;146621;577;45920;-73
2023/03/26 14:46:13;;;;;;;;;4.00;4.00;;;;;21.55;31.08;100174.50;146625;615;45022;-75
2023/03/26 14:49:58;;;;;;;;;5.00;5.00;;;;;22.19;33.71;100287.00;146624;564;45942;-76
2023/03/26 14:53:17;;;;;;;;;6.00;5.00;;;;;22.30;31.34;100309.84;146628;579;45022;-73
2023/03/26 14:56:58;;;;;;;;;3.00;3.00;;;;;22.22;29.87;100305.47;146624;661;45913;-74
2023/03/26 15:00:27;;;;;;;;;3.00;3.00;;;;;22.16;31.52;100305.47;146624;566;47010;-74
2023/03/26 15:04:02;;;;;;;;;4.00;3.67;;;;;22.00;32.10;100294.94;146626;578;45022;-72
2023/03/26 15:07:34;;;;;;;;;4.00;3.00;;;;;22.04;31.92;100301.09;146629;637;45021;-72
2023/03/26 15:11:05;;;;;;;;;4.00;3.00;;;;;22.16;31.42;100300.19;146625;564;45016;-75
2023/03/26 15:14:43;;;;;;;;;2.00;2.00;;;;;22.29;32.76;100301.94;146630;613;45012;-82
2023/03/26 15:18:12;;;;;;;;;3.00;2.67;;;;;22.37;30.77;100305.44;146623;616;45016;-82
2023/03/26 15:21:50;;;;;;;;;5.00;3.00;;;;;22.30;32.13;100316.88;146630;583;45012;-83
2023/03/26 15:25:29;;;;;;;;;2.00;2.00;;;;;22.12;32.08;100300.19;146625;571;45914;-76
2023/03/26 15:29:03;;;;;;;;;5.33;3.33;;;;;21.98;31.26;100309.03;146631;594;45013;-76
2023/03/26 15:32:32;;;;;;;;;3.67;3.00;;;;;21.72;32.89;100309.06;146625;575;45016;-81
2023/03/26 15:36:07;;;;;;;;;1.00;1.00;;;;;21.50;33.43;100305.56;146629;608;45029;-77
2023/03/26 15:40:06;;;;;;;;;2.67;1.67;;;;;21.41;33.78;100302.03;146625;588;45919;-76
2023/03/26 15:43:25;;;;;;;;;2.00;2.00;;;;;21.46;35.99;100304.66;146629;565;45021;-80
2023/03/26 15:47:15;;;;;;;;;2.33;2.33;;;;;21.43;35.25;100304.66;146623;583;45016;-77
2023/03/26 15:50:50;;;;;;;;;2.00;2.00;;;;;21.38;36.56;100301.16;146629;601;45028;-77
2023/03/26 15:54:37;;;;;;;;;3.00;2.33;;;;;21.36;38.78;100309.06;146624;596;45016;-76
2023/03/26 15:58:43;;;;;;;;;2.67;2.67;;;;;21.14;38.51;100299.34;146629;580;45021;-75
2023/03/26 16:02:33;;;;;;;;;4.00;4.00;;;;;21.02;38.38;100300.19;146625;577;45018;-73
2023/03/26 16:06:06;;;;;;;;;7.00;3.00;;;;;21.05;38.23;100309.88;146630;611;45021;-75
2023/03/26 16:09:59;;;;;;;;;;;;;;;;;;;;;
2023/03/26 16:13:30;;;;;;;;;6.33;4.67;;;;;19.98;38.16;100152.37;146628;589;45023;-74